Terminal Aerodrome Forecast
Issued by NWS

Home | Current Version | Previous Version | Graphics & Text | Print | Product List | Glossary On
Versions: 1 2 3 4 5 6 7 8 9 10 11 12 13 14 15 16 17 18 19 20 21 22
130
FTUS41 KCLE 110535
TAFFDY
TAF
KFDY 110535Z 1106/1206 29008KT P6SM OVC025
     FM111600 19008KT P6SM SCT015 OVC025
     FM112000 19008KT 5SM -SHSN OVC012=

USA.gov is the U.S. government's official web portal to all federal, state and local government web resources and services.